Time;durP1;ratioP1;P1;durP2;ratioP2;P2;SDS_P1;SDS_P2;PMS_P1;PMS_P2;Temp;Humidity;BMP_temperature;BMP_pressure;BME280_temperature;BME280_humidity;BME280_pressure;Samples;Min_cycle;Max_cycle;Signal;HPM_P1;HPM_P2
2021/12/30 00:00:19;;;;;;;;;;;11.80;99.90;;;;;;4971273;28;20088;-71
2021/12/30 00:02:46;;;;;;;;;;;11.80;99.90;;;;;;4969492;28;21225;-71
2021/12/30 00:05:14;;;;;;;;;;;11.80;99.90;;;;;;4970590;28;20052;-71
2021/12/30 00:07:43;;;;;;;;;;;11.80;99.90;;;;;;4970281;28;20061;-71
2021/12/30 00:10:11;;;;;;;;;;;11.80;99.90;;;;;;4969632;28;20161;-71
2021/12/30 00:12:38;;;;;;;;;;;11.90;99.90;;;;;;4970546;28;20060;-71
2021/12/30 00:15:07;;;;;;;;;;;11.80;99.90;;;;;;4970311;28;20182;-71
2021/12/30 00:17:34;;;;;;;;;;;11.90;99.90;;;;;;4970341;28;21113;-71
2021/12/30 00:20:02;;;;;;;;;;;12.00;99.90;;;;;;4969800;28;20067;-71
2021/12/30 00:22:29;;;;;;;;;;;12.00;99.90;;;;;;4970200;28;20076;-70
2021/12/30 00:24:57;;;;;;;;;;;12.00;99.90;;;;;;4969688;28;20158;-71
2021/12/30 00:27:24;;;;;;;;;;;12.00;99.90;;;;;;4970276;28;20162;-71
2021/12/30 00:29:52;;;;;;;;;;;12.10;99.90;;;;;;4969206;28;20995;-71
2021/12/30 00:32:19;;;;;;;;;;;12.10;99.90;;;;;;4970082;28;20084;-71
2021/12/30 00:34:46;;;;;;;;;;;12.10;99.90;;;;;;4969423;28;20096;-71
2021/12/30 00:37:13;;;;;;;;;;;12.10;99.90;;;;;;4970036;28;20091;-71
2021/12/30 00:39:40;;;;;;;;;;;12.10;99.90;;;;;;4969477;28;21059;-71
2021/12/30 00:42:09;;;;;;;;;;;12.10;99.90;;;;;;4970118;28;20061;-71
2021/12/30 00:44:36;;;;;;;;;;;12.10;99.90;;;;;;4969731;28;20492;-71
2021/12/30 00:47:03;;;;;;;;;;;12.10;99.90;;;;;;4969741;28;20059;-71
2021/12/30 00:49:31;;;;;;;;;;;12.10;99.90;;;;;;4968966;28;20178;-71
2021/12/30 00:51:58;;;;;;;;;;;12.00;99.90;;;;;;4970485;28;20069;-70
2021/12/30 00:54:25;;;;;;;;;;;12.00;99.90;;;;;;4969781;28;20060;-71
2021/12/30 00:56:52;;;;;;;;;;;11.90;99.90;;;;;;4969818;28;20061;-71
2021/12/30 00:59:21;;;;;;;;;;;11.90;99.90;;;;;;4968030;28;20162;-71
2021/12/30 01:01:48;;;;;;;;;;;11.80;99.90;;;;;;4969431;28;20076;-72
2021/12/30 01:04:15;;;;;;;;;;;11.80;99.90;;;;;;4969632;28;20108;-71
2021/12/30 01:06:42;;;;;;;;;;;11.80;99.90;;;;;;4970451;28;20060;-71
2021/12/30 01:09:09;;;;;;;;;;;11.90;99.90;;;;;;4968279;28;20051;-71
2021/12/30 01:11:37;;;;;;;;;;;12.00;99.90;;;;;;4969960;28;20052;-71
2021/12/30 01:14:13;;;;;;;;;;;12.00;99.90;;;;;;4968735;28;20052;-71
2021/12/30 01:16:45;;;;;;;;;;;12.10;99.90;;;;;;4969335;28;20222;-71
2021/12/30 01:19:23;;;;;;;;;;;12.10;99.90;;;;;;4968898;28;21150;-71
2021/12/30 01:21:52;;;;;;;;;;;12.20;99.90;;;;;;4968416;28;20242;-71
2021/12/30 01:24:19;;;;;;;;;;;12.20;99.90;;;;;;4968026;28;20060;-71
2021/12/30 01:26:46;;;;;;;;;;;12.20;99.90;;;;;;4968926;28;20100;-71
2021/12/30 01:29:14;;;;;;;;;;;12.30;99.90;;;;;;4968869;28;20053;-71
2021/12/30 01:31:42;;;;;;;;;;;12.30;99.90;;;;;;4969552;28;20069;-71
2021/12/30 01:34:09;;;;;;;;;;;12.40;99.90;;;;;;4968539;28;20236;-71
2021/12/30 01:36:36;;;;;;;;;;;12.40;99.90;;;;;;4969541;28;21120;-71
2021/12/30 01:39:03;;;;;;;;;;;12.30;99.90;;;;;;4969057;28;21128;-71
2021/12/30 01:41:31;;;;;;;;;;;12.40;99.90;;;;;;4969007;28;21048;-71
2021/12/30 01:43:58;;;;;;;;;;;12.40;99.90;;;;;;4968259;28;21119;-71
2021/12/30 01:46:25;;;;;;;;;;;12.40;99.90;;;;;;4968904;28;20061;-71
2021/12/30 01:48:54;;;;;;;;;;;12.50;99.90;;;;;;4969509;28;20052;-71
2021/12/30 01:51:21;;;;;;;;;;;12.50;99.90;;;;;;4968759;28;21006;-71
2021/12/30 01:53:48;;;;;;;;;;;12.50;99.90;;;;;;4968948;28;20231;-68
2021/12/30 01:56:15;;;;;;;;;;;12.50;99.90;;;;;;4969436;28;21110;-68
2021/12/30 01:58:42;;;;;;;;;;;12.60;99.90;;;;;;4967563;28;21019;-69
2021/12/30 02:01:09;;;;;;;;;;;12.60;99.90;;;;;;4969089;28;21147;-69
2021/12/30 02:03:36;;;;;;;;;;;12.60;99.90;;;;;;4968765;28;21174;-71
2021/12/30 02:06:05;;;;;;;;;;;12.60;99.90;;;;;;4968399;28;20066;-71
2021/12/30 02:08:32;;;;;;;;;;;12.60;99.90;;;;;;4968663;28;20088;-71
2021/12/30 02:10:59;;;;;;;;;;;12.50;99.90;;;;;;4971479;28;20133;-71
2021/12/30 02:13:27;;;;;;;;;;;12.50;99.90;;;;;;4972309;28;20084;-70
2021/12/30 02:16:00;;;;;;;;;;;12.50;99.90;;;;;;4971843;28;20060;-71
2021/12/30 02:18:27;;;;;;;;;;;12.40;99.90;;;;;;4972603;28;20154;-71
2021/12/30 02:20:57;;;;;;;;;;;12.30;99.90;;;;;;4972947;28;21154;-71
2021/12/30 02:23:25;;;;;;;;;;;12.30;99.90;;;;;;4972535;28;20166;-71
2021/12/30 02:25:53;;;;;;;;;;;12.20;99.90;;;;;;4972267;28;20163;-71
2021/12/30 02:28:22;;;;;;;;;;;12.20;99.90;;;;;;4972062;28;20067;-71
2021/12/30 02:30:51;;;;;;;;;;;12.20;99.90;;;;;;4973199;28;21181;-71
2021/12/30 02:33:18;;;;;;;;;;;12.20;99.90;;;;;;4972932;28;20141;-71
2021/12/30 02:35:45;;;;;;;;;;;12.20;99.90;;;;;;4971988;28;20061;-71
2021/12/30 02:38:13;;;;;;;;;;;12.20;99.90;;;;;;4972118;28;21125;-71
2021/12/30 02:40:44;;;;;;;;;;;12.20;99.90;;;;;;4971311;28;20195;-71
2021/12/30 02:43:13;;;;;;;;;;;12.20;99.90;;;;;;4971512;28;21098;-71
2021/12/30 02:45:41;;;;;;;;;;;12.20;99.90;;;;;;4972151;28;20090;-71
2021/12/30 02:48:12;;;;;;;;;;;12.20;99.90;;;;;;4971447;28;20076;-71
2021/12/30 02:50:39;;;;;;;;;;;12.20;99.90;;;;;;4972062;28;21122;-71
2021/12/30 02:53:06;;;;;;;;;;;12.20;99.90;;;;;;4971852;28;20141;-71
2021/12/30 02:55:35;;;;;;;;;;;12.20;99.90;;;;;;4971669;28;20067;-71
2021/12/30 02:58:02;;;;;;;;;;;12.30;99.90;;;;;;4971439;28;20088;-71
2021/12/30 03:00:30;;;;;;;;;;;12.30;99.90;;;;;;4971580;28;20097;-72
2021/12/30 03:02:57;;;;;;;;;;;12.30;99.90;;;;;;4972065;28;21134;-69
2021/12/30 03:05:24;;;;;;;;;;;12.30;99.90;;;;;;4971621;28;20065;-69
2021/12/30 03:07:52;;;;;;;;;;;12.30;99.90;;;;;;4971254;28;20075;-68
2021/12/30 03:10:20;;;;;;;;;;;12.40;99.90;;;;;;4973672;28;20174;-69
2021/12/30 03:12:55;;;;;;;;;;;12.40;99.90;;;;;;4979143;28;20060;-69
2021/12/30 03:15:21;;;;;;;;;;;12.40;99.90;;;;;;5006419;23;20076;-69
2021/12/30 03:17:48;;;;;;;;;;;12.40;99.90;;;;;;4989379;28;20052;-69
2021/12/30 03:20:16;;;;;;;;;;;12.40;99.90;;;;;;4990076;28;20100;-68
2021/12/30 03:22:43;;;;;;;;;;;12.40;99.90;;;;;;4991472;28;20060;-69
2021/12/30 03:25:12;;;;;;;;;;;12.40;99.90;;;;;;5002591;28;20190;-69
2021/12/30 03:27:39;;;;;;;;;;;12.40;99.90;;;;;;5010096;28;21079;-67
2021/12/30 03:30:11;;;;;;;;;;;12.40;99.90;;;;;;5009689;28;20067;-68
2021/12/30 03:32:38;;;;;;;;;;;12.40;99.90;;;;;;5010023;28;20141;-68
2021/12/30 03:35:05;;;;;;;;;;;12.40;99.90;;;;;;5010439;28;20153;-69
2021/12/30 03:37:33;;;;;;;;;;;12.40;99.90;;;;;;5009965;28;21076;-69
2021/12/30 03:40:00;;;;;;;;;;;12.40;99.90;;;;;;5010002;28;20075;-70
2021/12/30 03:42:27;;;;;;;;;;;12.40;99.90;;;;;;5010217;28;20205;-69
2021/12/30 03:44:57;;;;;;;;;;;12.40;99.90;;;;;;5009133;28;20086;-68
2021/12/30 03:47:25;;;;;;;;;;;12.40;99.90;;;;;;5009963;28;20077;-68
2021/12/30 03:49:53;;;;;;;;;;;12.40;99.90;;;;;;5010011;28;20065;-69
2021/12/30 03:52:25;;;;;;;;;;;12.50;99.90;;;;;;5010546;28;20068;-67
2021/12/30 03:54:52;;;;;;;;;;;12.40;99.90;;;;;;5009671;28;20267;-69
2021/12/30 03:57:19;;;;;;;;;;;12.50;99.90;;;;;;5009768;28;21140;-68
2021/12/30 03:59:46;;;;;;;;;;;12.50;99.90;;;;;;5008424;28;20058;-69
2021/12/30 04:02:13;;;;;;;;;;;12.50;99.90;;;;;;5010451;28;20060;-69
2021/12/30 04:04:43;;;;;;;;;;;12.50;99.90;;;;;;5009748;28;20064;-69
2021/12/30 04:07:10;;;;;;;;;;;12.60;99.90;;;;;;5010521;28;20060;-68
2021/12/30 04:09:37;;;;;;;;;;;12.60;99.90;;;;;;5010094;28;20131;-68
2021/12/30 04:12:04;;;;;;;;;;;12.60;99.90;;;;;;5010248;28;20058;-69
2021/12/30 04:14:32;;;;;;;;;;;12.60;99.90;;;;;;5008838;28;20075;-69
2021/12/30 04:16:59;;;;;;;;;;;12.70;99.90;;;;;;5009790;28;20088;-69
2021/12/30 04:19:26;;;;;;;;;;;12.80;99.90;;;;;;5009027;28;20080;-69
2021/12/30 04:21:57;;;;;;;;;;;12.90;99.90;;;;;;5009361;28;20132;-69
2021/12/30 04:24:24;;;;;;;;;;;12.90;99.90;;;;;;5009632;28;21189;-69
2021/12/30 04:26:51;;;;;;;;;;;12.90;99.90;;;;;;5009205;28;21059;-68
2021/12/30 04:29:19;;;;;;;;;;;13.00;99.90;;;;;;5009267;28;21147;-67
2021/12/30 04:31:46;;;;;;;;;;;13.00;99.90;;;;;;5009642;28;20059;-69
2021/12/30 04:34:13;;;;;;;;;;;13.00;99.90;;;;;;5009418;28;20060;-69
2021/12/30 04:36:40;;;;;;;;;;;13.00;99.90;;;;;;5009538;28;21067;-69
2021/12/30 04:39:10;;;;;;;;;;;13.10;99.90;;;;;;5008720;28;20180;-69
2021/12/30 04:41:37;;;;;;;;;;;13.10;99.90;;;;;;5009847;28;20145;-68
2021/12/30 04:44:04;;;;;;;;;;;13.10;99.90;;;;;;5008537;28;20059;-68
2021/12/30 04:46:33;;;;;;;;;;;13.10;99.90;;;;;;5009374;28;20140;-68
2021/12/30 04:49:00;;;;;;;;;;;13.20;99.90;;;;;;5008320;28;21169;-69
2021/12/30 04:51:27;;;;;;;;;;;13.20;99.90;;;;;;5008896;28;21177;-69
2021/12/30 04:53:54;;;;;;;;;;;13.30;99.90;;;;;;5009473;28;21113;-69
2021/12/30 04:56:23;;;;;;;;;;;13.30;99.90;;;;;;5009169;28;20051;-69
2021/12/30 04:58:50;;;;;;;;;;;13.30;99.90;;;;;;5008355;28;20059;-69
2021/12/30 05:01:17;;;;;;;;;;;13.40;99.90;;;;;;5008919;28;20202;-69
2021/12/30 05:03:44;;;;;;;;;;;13.40;99.90;;;;;;5008411;28;21065;-69
2021/12/30 05:06:11;;;;;;;;;;;13.40;99.90;;;;;;5008532;28;20068;-70
2021/12/30 05:08:38;;;;;;;;;;;13.40;99.90;;;;;;5008478;28;21074;-69
2021/12/30 05:11:06;;;;;;;;;;;13.40;99.90;;;;;;5009025;28;20059;-69
2021/12/30 05:13:34;;;;;;;;;;;13.40;99.90;;;;;;5009092;28;21136;-69
2021/12/30 05:16:02;;;;;;;;;;;13.40;99.90;;;;;;5008360;28;20051;-69
2021/12/30 05:18:32;;;;;;;;;;;13.50;99.90;;;;;;5008459;28;20161;-69
2021/12/30 05:21:00;;;;;;;;;;;13.50;99.90;;;;;;5009185;28;21044;-69
2021/12/30 05:23:27;;;;;;;;;;;13.50;99.90;;;;;;5009476;28;20059;-69
2021/12/30 05:25:54;;;;;;;;;;;13.50;99.90;;;;;;5008531;28;20052;-70
2021/12/30 05:28:21;;;;;;;;;;;13.50;99.90;;;;;;5007405;28;21121;-69
2021/12/30 05:30:50;;;;;;;;;;;13.50;99.90;;;;;;5009398;28;20058;-69
2021/12/30 05:33:18;;;;;;;;;;;13.50;99.90;;;;;;5009162;28;20057;-69
2021/12/30 05:35:45;;;;;;;;;;;13.50;99.90;;;;;;5009132;28;20060;-69
2021/12/30 05:38:15;;;;;;;;;;;13.50;99.90;;;;;;5008467;28;20075;-69
2021/12/30 05:40:42;;;;;;;;;;;13.50;99.90;;;;;;5008090;28;20058;-69
2021/12/30 05:43:09;;;;;;;;;;;13.50;99.90;;;;;;5007888;28;21098;-69
2021/12/30 05:45:36;;;;;;;;;;;13.60;99.90;;;;;;5012708;28;21091;-69
2021/12/30 05:48:05;;;;;;;;;;;13.50;99.90;;;;;;5012416;28;20051;-69
2021/12/30 05:50:33;;;;;;;;;;;13.60;99.90;;;;;;5013305;28;20075;-68
2021/12/30 05:53:00;;;;;;;;;;;13.60;99.90;;;;;;5011991;28;20060;-69
2021/12/30 05:55:28;;;;;;;;;;;13.60;99.90;;;;;;5011845;28;20088;-69
2021/12/30 05:57:55;;;;;;;;;;;13.60;99.90;;;;;;5012789;28;20076;-69
2021/12/30 06:00:24;;;;;;;;;;;13.60;99.90;;;;;;5012435;28;20068;-69
2021/12/30 06:02:51;;;;;;;;;;;13.60;99.90;;;;;;4996633;28;20076;-69
2021/12/30 06:05:20;;;;;;;;;;;13.60;99.90;;;;;;5001122;28;20074;-71
2021/12/30 06:07:48;;;;;;;;;;;13.70;99.90;;;;;;5005983;28;20078;-69
2021/12/30 06:10:15;;;;;;;;;;;13.70;99.90;;;;;;5012635;28;20051;-70
2021/12/30 06:12:43;;;;;;;;;;;13.70;99.90;;;;;;4992834;28;20067;-71
2021/12/30 06:15:11;;;;;;;;;;;13.70;99.90;;;;;;4992350;28;20060;-71
2021/12/30 06:17:38;;;;;;;;;;;13.70;99.90;;;;;;4992342;28;20067;-70
2021/12/30 06:20:06;;;;;;;;;;;13.80;99.90;;;;;;5001405;28;20068;-71
2021/12/30 06:22:35;;;;;;;;;;;13.80;99.90;;;;;;5012323;28;20060;-70
2021/12/30 06:25:02;;;;;;;;;;;13.80;99.90;;;;;;5011609;28;21009;-70
2021/12/30 06:27:29;;;;;;;;;;;13.80;99.90;;;;;;5013208;28;20108;-72
2021/12/30 06:29:56;;;;;;;;;;;13.70;99.90;;;;;;5011384;28;20074;-71
2021/12/30 06:32:23;;;;;;;;;;;13.70;99.90;;;;;;5012362;28;20076;-70
2021/12/30 06:34:50;;;;;;;;;;;13.60;99.90;;;;;;5011975;28;20115;-72
2021/12/30 06:37:17;;;;;;;;;;;13.60;99.90;;;;;;5001045;28;20116;-71
2021/12/30 06:39:46;;;;;;;;;;;13.60;99.90;;;;;;4991927;28;20058;-71
2021/12/30 06:42:13;;;;;;;;;;;13.60;99.90;;;;;;4992372;28;20084;-70
2021/12/30 06:44:40;;;;;;;;;;;13.60;99.90;;;;;;4990643;28;20067;-70
2021/12/30 06:47:08;;;;;;;;;;;13.60;99.90;;;;;;4991796;28;21304;-70
2021/12/30 06:49:37;;;;;;;;;;;13.70;99.90;;;;;;4990901;28;20178;-70
2021/12/30 06:52:05;;;;;;;;;;;13.70;99.90;;;;;;4992020;28;20251;-71
2021/12/30 06:54:33;;;;;;;;;;;13.70;99.90;;;;;;4991555;28;20052;-70
2021/12/30 06:57:02;;;;;;;;;;;13.70;99.90;;;;;;4990715;28;20148;-70
2021/12/30 06:59:30;;;;;;;;;;;13.70;99.90;;;;;;4991046;28;21158;-71
2021/12/30 07:01:57;;;;;;;;;;;13.60;99.90;;;;;;4990731;28;20067;-70
2021/12/30 07:04:25;;;;;;;;;;;13.70;99.90;;;;;;4991031;28;20141;-71
2021/12/30 07:06:52;;;;;;;;;;;13.70;99.90;;;;;;4991497;28;20169;-71
2021/12/30 07:09:19;;;;;;;;;;;13.70;99.90;;;;;;4991051;28;20060;-71
2021/12/30 07:11:48;;;;;;;;;;;13.70;99.90;;;;;;5005324;28;20081;-70
2021/12/30 07:14:18;;;;;;;;;;;13.70;99.90;;;;;;5010326;28;21039;-70
2021/12/30 07:16:46;;;;;;;;;;;13.70;99.90;;;;;;5011819;28;20241;-70
2021/12/30 07:19:13;;;;;;;;;;;13.70;99.90;;;;;;5010300;28;20074;-71
2021/12/30 07:21:40;;;;;;;;;;;13.70;99.90;;;;;;5010474;28;20082;-72
2021/12/30 07:24:07;;;;;;;;;;;13.70;99.90;;;;;;5010242;28;20161;-70
2021/12/30 07:26:35;;;;;;;;;;;13.70;99.90;;;;;;5010865;28;20059;-71
2021/12/30 07:29:02;;;;;;;;;;;13.70;99.90;;;;;;5009388;28;20060;-70
2021/12/30 07:31:31;;;;;;;;;;;13.80;99.90;;;;;;5010703;28;20087;-71
2021/12/30 07:33:58;;;;;;;;;;;13.80;99.90;;;;;;5010451;28;21044;-71
2021/12/30 07:36:25;;;;;;;;;;;13.90;99.90;;;;;;5010205;28;20060;-72
2021/12/30 07:38:52;;;;;;;;;;;13.90;99.90;;;;;;5009893;28;20059;-70
2021/12/30 07:41:19;;;;;;;;;;;13.90;99.90;;;;;;5009753;28;21067;-69
2021/12/30 07:43:46;;;;;;;;;;;14.00;99.90;;;;;;5009819;28;20132;-69
2021/12/30 07:46:13;;;;;;;;;;;14.00;99.90;;;;;;5010060;28;20066;-71
2021/12/30 07:48:42;;;;;;;;;;;14.00;99.90;;;;;;5009906;28;20234;-71
2021/12/30 07:51:09;;;;;;;;;;;14.10;99.90;;;;;;5010056;28;21044;-71
2021/12/30 07:53:37;;;;;;;;;;;14.10;99.90;;;;;;5010614;28;21119;-71
2021/12/30 07:56:05;;;;;;;;;;;14.10;99.90;;;;;;5010293;28;20066;-71
2021/12/30 07:58:32;;;;;;;;;;;14.10;99.90;;;;;;5009856;28;20051;-71
2021/12/30 08:00:59;;;;;;;;;;;14.10;99.90;;;;;;5009785;28;21128;-71
2021/12/30 08:03:26;;;;;;;;;;;14.10;99.90;;;;;;5010142;28;20152;-71
2021/12/30 08:05:55;;;;;;;;;;;14.10;99.90;;;;;;5009242;28;21172;-71
2021/12/30 08:08:22;;;;;;;;;;;14.10;99.90;;;;;;5026305;28;20060;-71
2021/12/30 08:10:50;;;;;;;;;;;14.00;99.90;;;;;;5005193;28;21182;-71
2021/12/30 08:13:17;;;;;;;;;;;14.00;99.90;;;;;;4990168;28;21124;-71
2021/12/30 08:15:46;;;;;;;;;;;13.90;99.90;;;;;;4989561;28;21117;-71
2021/12/30 08:18:13;;;;;;;;;;;13.90;99.90;;;;;;4989510;28;20051;-71
2021/12/30 08:20:40;;;;;;;;;;;13.90;99.90;;;;;;4989615;28;20060;-71
2021/12/30 08:23:09;;;;;;;;;;;13.90;99.90;;;;;;4990408;28;20083;-71
2021/12/30 08:25:36;;;;;;;;;;;13.90;99.90;;;;;;4989390;28;21156;-71
2021/12/30 08:28:04;;;;;;;;;;;13.90;99.90;;;;;;4989658;28;20058;-71
2021/12/30 08:30:31;;;;;;;;;;;13.90;99.90;;;;;;4989864;28;21196;-72
2021/12/30 08:32:58;;;;;;;;;;;13.90;99.90;;;;;;4989074;28;20060;-71
2021/12/30 08:35:25;;;;;;;;;;;13.90;99.90;;;;;;4989287;28;20060;-70
2021/12/30 08:37:54;;;;;;;;;;;14.00;99.90;;;;;;4989275;28;20081;-71
2021/12/30 08:40:23;;;;;;;;;;;14.10;99.90;;;;;;4989679;28;21165;-71
2021/12/30 08:42:50;;;;;;;;;;;14.10;99.90;;;;;;4989518;28;20059;-71
2021/12/30 08:45:17;;;;;;;;;;;14.20;99.90;;;;;;4987837;28;20051;-71
2021/12/30 08:47:44;;;;;;;;;;;14.20;99.90;;;;;;4989662;28;21115;-70
2021/12/30 08:50:13;;;;;;;;;;;14.30;99.90;;;;;;4989401;28;20160;-71
2021/12/30 08:52:41;;;;;;;;;;;14.40;99.90;;;;;;4989437;28;21067;-71
2021/12/30 08:55:09;;;;;;;;;;;14.40;99.90;;;;;;4988628;28;20075;-72
2021/12/30 08:57:40;;;;;;;;;;;14.40;99.90;;;;;;4988479;28;20059;-71
2021/12/30 09:00:08;;;;;;;;;;;14.50;99.90;;;;;;4989731;28;21086;-71
2021/12/30 09:02:35;;;;;;;;;;;14.50;99.90;;;;;;4989602;28;20167;-71
2021/12/30 09:05:02;;;;;;;;;;;14.50;99.90;;;;;;4988715;28;20153;-71
2021/12/30 09:07:30;;;;;;;;;;;14.50;99.90;;;;;;4989441;28;20056;-71
2021/12/30 09:09:57;;;;;;;;;;;14.50;99.90;;;;;;4988415;28;20086;-71
2021/12/30 09:12:24;;;;;;;;;;;14.50;99.90;;;;;;5007130;28;20067;-71
2021/12/30 09:14:52;;;;;;;;;;;14.50;99.90;;;;;;5020719;22;20060;-72
2021/12/30 09:17:19;;;;;;;;;;;14.50;99.90;;;;;;4969880;28;20052;-72
2021/12/30 09:19:46;;;;;;;;;;;14.50;99.90;;;;;;4967320;28;20060;-72
2021/12/30 09:22:14;;;;;;;;;;;14.50;99.90;;;;;;4970111;28;20161;-72
2021/12/30 09:24:42;;;;;;;;;;;14.50;99.90;;;;;;4969022;28;20060;-70
2021/12/30 09:27:09;;;;;;;;;;;14.60;99.90;;;;;;4969628;28;21143;-72
2021/12/30 09:29:36;;;;;;;;;;;14.60;99.90;;;;;;4969070;28;20069;-71
2021/12/30 09:32:05;;;;;;;;;;;14.60;99.90;;;;;;4969331;28;20066;-72
2021/12/30 09:34:33;;;;;;;;;;;14.70;99.90;;;;;;4969281;28;20130;-72
2021/12/30 09:37:00;;;;;;;;;;;14.80;99.90;;;;;;4969041;28;21032;-72
2021/12/30 09:39:27;;;;;;;;;;;14.80;99.90;;;;;;4968555;28;20366;-72
2021/12/30 09:41:54;;;;;;;;;;;14.80;99.90;;;;;;4970225;28;20060;-72
2021/12/30 09:44:21;;;;;;;;;;;14.80;99.90;;;;;;4968421;28;20052;-72
2021/12/30 09:46:49;;;;;;;;;;;14.80;99.90;;;;;;4969565;28;21298;-72
2021/12/30 09:49:18;;;;;;;;;;;14.80;99.90;;;;;;4968319;28;20067;-72
2021/12/30 09:51:45;;;;;;;;;;;14.80;99.90;;;;;;4968879;28;20259;-72
2021/12/30 09:54:13;;;;;;;;;;;14.80;99.90;;;;;;4968793;28;20061;-71
2021/12/30 09:56:40;;;;;;;;;;;14.80;99.90;;;;;;4969698;28;20142;-71
2021/12/30 09:59:08;;;;;;;;;;;14.80;99.90;;;;;;4968330;28;20087;-72
2021/12/30 10:01:36;;;;;;;;;;;14.80;99.90;;;;;;4968804;28;20091;-72
2021/12/30 10:04:04;;;;;;;;;;;14.80;99.90;;;;;;4968502;28;21059;-72
2021/12/30 10:06:33;;;;;;;;;;;14.80;99.90;;;;;;4968879;28;20059;-72
2021/12/30 10:09:05;;;;;;;;;;;14.80;99.90;;;;;;4968389;28;20060;-72
2021/12/30 10:11:32;;;;;;;;;;;14.90;99.90;;;;;;4980720;28;20075;-72
2021/12/30 10:14:01;;;;;;;;;;;15.00;99.90;;;;;;4988279;28;21149;-72
2021/12/30 10:16:28;;;;;;;;;;;15.00;99.90;;;;;;4988144;28;20075;-72
2021/12/30 10:18:57;;;;;;;;;;;15.00;99.90;;;;;;4988232;28;20068;-72
2021/12/30 10:21:24;;;;;;;;;;;15.00;99.90;;;;;;4988591;28;21079;-72
2021/12/30 10:23:54;;;;;;;;;;;15.10;99.90;;;;;;4988670;28;20060;-72
2021/12/30 10:26:21;;;;;;;;;;;15.10;99.90;;;;;;4987855;28;20052;-72
2021/12/30 10:28:50;;;;;;;;;;;15.20;99.90;;;;;;4987865;28;20060;-72
2021/12/30 10:31:18;;;;;;;;;;;15.30;99.90;;;;;;4990901;28;21019;-72
2021/12/30 10:33:50;;;;;;;;;;;15.30;99.90;;;;;;4992058;28;20077;-72
2021/12/30 10:36:19;;;;;;;;;;;15.30;99.90;;;;;;4991824;28;20153;-72
2021/12/30 10:38:46;;;;;;;;;;;15.30;99.90;;;;;;4991184;28;20084;-72
2021/12/30 10:41:15;;;;;;;;;;;15.20;99.90;;;;;;4991829;28;20050;-72
2021/12/30 10:43:48;;;;;;;;;;;15.20;99.90;;;;;;4991771;28;20186;-72
2021/12/30 10:46:19;;;;;;;;;;;15.20;99.90;;;;;;4991977;28;20276;-72
2021/12/30 10:48:48;;;;;;;;;;;15.20;99.90;;;;;;4991456;28;20067;-72
2021/12/30 10:51:17;;;;;;;;;;;15.20;99.90;;;;;;4991620;28;21243;-73
2021/12/30 10:53:44;;;;;;;;;;;15.20;99.90;;;;;;4992035;28;20162;-72
2021/12/30 10:56:23;;;;;;;;;;;15.20;99.90;;;;;;4991592;28;20161;-72
2021/12/30 10:58:51;;;;;;;;;;;15.20;99.90;;;;;;4990369;28;20140;-72
2021/12/30 11:01:19;;;;;;;;;;;15.10;99.90;;;;;;4991504;28;20060;-72
2021/12/30 11:03:54;;;;;;;;;;;15.10;99.90;;;;;;4991360;28;20142;-72
2021/12/30 11:06:21;;;;;;;;;;;15.10;99.90;;;;;;4992101;28;20060;-72
2021/12/30 11:08:50;;;;;;;;;;;15.10;99.90;;;;;;4990900;28;21137;-72
2021/12/30 11:11:29;;;;;;;;;;;15.10;99.90;;;;;;4981634;28;20257;-73
2021/12/30 11:14:00;;;;;;;;;;;15.20;99.90;;;;;;4971658;28;21178;-72
2021/12/30 11:16:27;;;;;;;;;;;15.20;99.90;;;;;;4971151;28;20080;-71
2021/12/30 11:18:56;;;;;;;;;;;15.30;99.90;;;;;;4971685;28;20088;-71
2021/12/30 11:21:36;;;;;;;;;;;15.30;99.90;;;;;;4971573;28;20979;-72
2021/12/30 11:24:03;;;;;;;;;;;15.30;99.90;;;;;;4971092;28;20052;-72
2021/12/30 11:26:32;;;;;;;;;;;15.40;99.90;;;;;;4971883;28;20099;-72
2021/12/30 11:29:00;;;;;;;;;;;15.40;99.90;;;;;;4969886;28;20084;-72
2021/12/30 11:31:27;;;;;;;;;;;15.60;99.90;;;;;;4971362;28;20060;-71
2021/12/30 11:33:54;;;;;;;;;;;15.60;99.90;;;;;;4971624;28;20068;-72
2021/12/30 11:36:21;;;;;;;;;;;15.60;99.90;;;;;;4971055;28;20067;-72
2021/12/30 11:38:49;;;;;;;;;;;15.60;99.90;;;;;;4970580;28;20162;-72
2021/12/30 11:41:18;;;;;;;;;;;15.60;99.90;;;;;;4970976;28;21047;-72
2021/12/30 11:43:47;;;;;;;;;;;15.70;99.90;;;;;;4969394;28;20162;-72
2021/12/30 11:46:33;;;;;;;;;;;15.80;99.90;;;;;;4970660;28;20133;-72
2021/12/30 11:49:01;;;;;;;;;;;15.90;99.90;;;;;;4970333;28;20067;-72
2021/12/30 11:51:41;;;;;;;;;;;15.80;99.90;;;;;;4970834;28;21119;-72
2021/12/30 11:54:38;;;;;;;;;;;15.70;99.90;;;;;;4971242;28;21109;-72
2021/12/30 11:57:25;;;;;;;;;;;15.60;99.90;;;;;;4926192;28;20143;-73
2021/12/30 11:59:54;;;;;;;;;;;15.60;99.90;;;;;;4962235;28;20068;-72
2021/12/30 12:02:35;;;;;;;;;;;15.60;99.90;;;;;;4970330;28;21106;-72
2021/12/30 12:05:23;;;;;;;;;;;15.60;99.90;;;;;;4970527;28;20150;-72
2021/12/30 12:07:50;;;;;;;;;;;;;;;;;;4960820;28;20091;-72
2021/12/30 12:10:18;;;;;;;;;;;15.60;99.90;;;;;;4971651;28;20060;-71
2021/12/30 12:12:45;;;;;;;;;;;15.60;99.90;;;;;;4990566;28;20060;-72
2021/12/30 12:15:14;;;;;;;;;;;15.60;99.90;;;;;;4989136;28;20050;-72
2021/12/30 12:17:42;;;;;;;;;;;15.60;99.90;;;;;;4989243;28;21068;-72
2021/12/30 12:20:13;;;;;;;;;;;15.60;99.90;;;;;;4989131;28;20067;-72
2021/12/30 12:22:41;;;;;;;;;;;15.50;99.90;;;;;;4990153;28;20132;-72
2021/12/30 12:25:10;;;;;;;;;;;15.50;99.90;;;;;;4989390;28;20051;-72
2021/12/30 12:27:38;;;;;;;;;;;15.50;99.90;;;;;;4989827;28;20051;-72
2021/12/30 12:30:06;;;;;;;;;;;15.50;99.90;;;;;;4989666;28;20140;-72
2021/12/30 12:32:40;;;;;;;;;;;15.50;99.90;;;;;;4989296;28;21035;-72
2021/12/30 12:35:22;;;;;;;;;;;15.50;99.90;;;;;;4989018;28;20052;-72
2021/12/30 12:37:51;;;;;;;;;;;15.50;99.90;;;;;;4989455;28;20068;-70
2021/12/30 12:40:26;;;;;;;;;;;15.50;99.90;;;;;;4990433;28;20060;-72
2021/12/30 12:42:55;;;;;;;;;;;15.40;99.90;;;;;;4989003;28;20092;-69
2021/12/30 12:45:23;;;;;;;;;;;15.40;99.90;;;;;;4988399;28;20201;-72
2021/12/30 12:48:05;;;;;;;;;;;15.40;99.90;;;;;;4988871;28;20162;-71
2021/12/30 12:50:42;;;;;;;;;;;15.40;99.90;;;;;;4987577;28;20091;-72
2021/12/30 12:53:20;;;;;;;;;;;15.30;99.90;;;;;;4989415;28;20057;-72
2021/12/30 12:55:47;;;;;;;;;;;15.30;99.90;;;;;;4989173;28;21169;-71
2021/12/30 12:58:18;;;;;;;;;;;15.30;99.90;;;;;;4988919;28;20061;-71
2021/12/30 13:00:45;;;;;;;;;;;15.30;99.90;;;;;;4989182;28;20060;-72
2021/12/30 13:03:12;;;;;;;;;;;15.30;99.90;;;;;;4989027;28;21044;-71
2021/12/30 13:05:51;;;;;;;;;;;15.30;99.90;;;;;;4988678;28;20061;-72
2021/12/30 13:08:19;;;;;;;;;;;15.20;99.90;;;;;;4988525;28;20051;-72
2021/12/30 13:10:47;;;;;;;;;;;15.20;99.90;;;;;;4983734;28;20067;-71
2021/12/30 13:13:27;;;;;;;;;;;15.10;99.90;;;;;;4970101;28;20052;-72
2021/12/30 13:15:54;;;;;;;;;;;15.20;99.90;;;;;;4969892;28;20061;-72
2021/12/30 13:18:21;;;;;;;;;;;15.20;99.90;;;;;;4968288;28;21095;-72
2021/12/30 13:20:51;;;;;;;;;;;15.30;99.90;;;;;;4970344;28;20154;-72
2021/12/30 13:23:28;;;;;;;;;;;15.30;99.90;;;;;;4969453;28;20291;-72
2021/12/30 13:26:00;;;;;;;;;;;15.50;99.90;;;;;;4969096;28;20060;-72
2021/12/30 13:28:30;;;;;;;;;;;15.60;99.90;;;;;;4967874;28;21052;-72
2021/12/30 13:31:07;;;;;;;;;;;15.70;99.90;;;;;;4969174;28;20084;-71
2021/12/30 13:33:34;;;;;;;;;;;15.80;99.90;;;;;;4969844;28;20059;-71
2021/12/30 13:36:14;;;;;;;;;;;16.00;99.90;;;;;;4986170;28;21207;-72
2021/12/30 13:38:41;;;;;;;;;;;15.90;99.90;;;;;;4969232;28;20511;-72
2021/12/30 13:41:15;;;;;;;;;;;15.60;99.90;;;;;;4969606;28;20061;-72
2021/12/30 13:43:44;;;;;;;;;;;15.40;99.90;;;;;;4967736;28;20060;-72
2021/12/30 13:46:11;;;;;;;;;;;15.20;99.90;;;;;;4969316;28;20295;-71
2021/12/30 13:48:41;;;;;;;;;;;15.10;99.90;;;;;;4969343;28;20193;-72
2021/12/30 13:51:10;;;;;;;;;;;15.00;99.90;;;;;;4969490;28;20182;-72
2021/12/30 13:53:41;;;;;;;;;;;15.00;99.90;;;;;;4968840;28;20141;-71
2021/12/30 13:56:08;;;;;;;;;;;14.90;99.90;;;;;;4969440;28;20067;-72
2021/12/30 13:58:37;;;;;;;;;;;14.90;99.90;;;;;;4968799;28;20061;-72
2021/12/30 14:01:05;;;;;;;;;;;15.00;99.90;;;;;;4968996;28;20162;-72
2021/12/30 14:03:33;;;;;;;;;;;14.90;99.90;;;;;;4968726;28;20072;-73
2021/12/30 14:06:04;;;;;;;;;;;14.90;99.90;;;;;;4970965;28;20099;-72
2021/12/30 14:08:31;;;;;;;;;;;14.90;99.90;;;;;;4972990;28;21080;-71
2021/12/30 14:11:01;;;;;;;;;;;14.90;99.90;;;;;;4973717;28;20150;-72
2021/12/30 14:13:33;;;;;;;;;;;14.90;99.90;;;;;;4973271;28;20163;-71
2021/12/30 14:16:00;;;;;;;;;;;14.90;99.90;;;;;;4972999;28;20060;-72
2021/12/30 14:18:28;;;;;;;;;;;15.00;99.90;;;;;;4972747;28;20150;-72
2021/12/30 14:20:56;;;;;;;;;;;14.90;99.90;;;;;;4972823;28;20089;-72
2021/12/30 14:23:33;;;;;;;;;;;14.90;99.90;;;;;;4972574;28;21281;-72
2021/12/30 14:26:14;;;;;;;;;;;15.00;99.90;;;;;;4972252;28;20153;-70